• Join FlightAware (Why Join?)
  • Login
  • US Flag 
08:25AM EDT


 

Airport Tracker/Info


-or-


 

Live Flight TrackerFlight Track Log ✈ DAL2286 ✈ 17-Jul-2013 ✈ KATL - KBTV

Flight Track Log - Related Links

Times and Time Zones

All times are in EDT time to prevent confusion due to time zone crossing. See the DAL2286 flight status page for this flight to view local times or setup timezone preferences in your user account.

Time Position Orientation Groundspeed Altitude Reporting Facility
EDT Latitude Longitude Course Direction KTS MPH feet Rate Location/Type
10:03PM 33.6500 -84.4833 North 194 223 2,400  Level Atlanta TRACON
10:04PM 33.6833 -84.5500 301° West 263 303 4,500 2,400 Climbing Atlanta TRACON
10:05PM 33.8383 -84.1717 320° Northwest  Level FlightAware Approximate
10:05PM 33.7500 -84.5833 337° Northwest 272 313 7,300  Level Atlanta TRACON
10:06PM 33.9334 -84.2667 North  Level FlightAware Approximate
10:06PM 33.8167 -84.5833 360° North 288 331 9,800  Level Atlanta TRACON
10:06PM 33.8911 -84.5894 356° North 299 344 11,400 2,220 Climbing Atlanta Center
10:07PM 34.0569 -84.2667 North  Level FlightAware Approximate
10:07PM 33.9808 -84.5925 358° North 322 371 13,900  Level Atlanta Center
10:08PM 34.1804 -84.2667 North  Level FlightAware Approximate
10:08PM 34.0539 -84.5953 358° North 306 352 15,700  Level Atlanta Center
10:09PM 34.1667 -84.5911 North 325 374 16,700 900 Climbing Atlanta Center
10:10PM 34.2625 -84.5917 360° North 372 428 17,500 960 Climbing Atlanta Center
10:11PM 34.3756 -84.5722 North 398 458 18,700 1,500 Climbing Atlanta Center
10:12PM 34.4903 -84.5228 20° North 419 482 20,500 1,440 Climbing Atlanta Center
10:13PM 34.6094 -84.5006 North 419 482 21,600 1,440 Climbing Atlanta Center
10:14PM 34.7389 -84.4861 North 447 514 23,400 1,740 Climbing Atlanta Center
10:15PM 34.8600 -84.4692 North 447 514 25,100 1,440 Climbing Atlanta Center
10:16PM 34.9708 -84.4189 20° North 428 493 26,300 1,140 Climbing Atlanta Center
10:17PM 35.0814 -84.3586 24° Northeast 421 484 27,400 900 Climbing Atlanta Center
10:18PM 35.1922 -84.2956 25° Northeast 427 491 28,200 960 Climbing Atlanta Center
10:19PM 35.3050 -84.2322 25° Northeast 432 497 29,400 1,020 Climbing Atlanta Center
10:20PM 35.4219 -84.1689 24° Northeast 439 505 30,300 900 Climbing Atlanta Center
10:21PM 35.5325 -84.1025 26° Northeast 439 505 31,200 960 Climbing Atlanta Center
10:22PM 35.6453 -84.0414 24° Northeast 439 505 32,300 900 Climbing Atlanta Center
10:23PM 35.7536 -83.9772 26° Northeast 439 505 33,000 300 Climbing Atlanta Center
10:24PM 35.8683 -83.9131 24° Northeast 439 505 33,000  Level Atlanta Center
10:25PM 35.9789 -83.8411 28° Northeast 439 505 33,000  Level Atlanta Center
10:26PM 36.0892 -83.7742 26° Northeast 439 505 33,000  Level Atlanta Center
10:27PM 36.1975 -83.7042 28° Northeast 444 511 33,000  Level Atlanta Center
10:28PM 36.3100 -83.6472 22° Northeast 438 504 33,000  Level Atlanta Center
10:30PM 36.5011 -83.6033 10° North 442 509 33,000  Level Indianapolis Center
10:31PM 36.6175 -83.5794 North 446 513 33,000  Level Indianapolis Center
10:32PM 36.7381 -83.5547 North 438 504 33,000  Level Indianapolis Center
10:33PM 36.8606 -83.5294 North 441 507 33,000  Level Indianapolis Center
10:34PM 36.9828 -83.5003 11° North 445 512 33,000  Level Indianapolis Center
10:35PM 37.1058 -83.4617 14° North 451 519 33,000  Level Indianapolis Center
10:36PM 37.2278 -83.4128 18° North 456 525 33,000  Level Indianapolis Center
10:37PM 37.3533 -83.3167 31° Northeast 456 525 33,000  Level Indianapolis Center
10:38PM 37.4558 -83.2256 35° Northeast 450 518 33,000  Level Indianapolis Center
10:39PM 37.5575 -83.1344 35° Northeast 449 517 33,000  Level Indianapolis Center
10:40PM 37.6606 -83.0419 35° Northeast 453 521 33,000  Level Indianapolis Center
10:41PM 37.7606 -82.9508 36° Northeast 445 512 33,000  Level Indianapolis Center
10:42PM 37.8608 -82.8603 35° Northeast 440 506 33,000  Level Indianapolis Center
10:43PM 37.9611 -82.7672 36° Northeast 448 516 33,000  Level Indianapolis Center
10:44PM 38.0611 -82.6747 36° Northeast 446 513 33,000  Level Indianapolis Center
10:45PM 38.1622 -82.5800 36° Northeast 450 518 33,000  Level Indianapolis Center
10:46PM 38.2764 -82.4742 36° Northeast 450 518 33,000  Level Indianapolis Center
10:47PM 38.3772 -82.3789 37° Northeast 450 518 33,000  Level Indianapolis Center
10:48PM 38.4786 -82.2842 36° Northeast 449 517 33,000  Level Indianapolis Center
10:49PM 38.5792 -82.1889 37° Northeast 448 516 33,000  Level Indianapolis Center
10:50PM 38.6811 -82.0931 36° Northeast 449 517 33,000  Level Indianapolis Center
10:51PM 38.7842 -81.9969 36° Northeast 455 524 33,000  Level Indianapolis Center
10:52PM 38.8883 -81.8986 36° Northeast 458 527 33,000  Level Indianapolis Center
10:53PM 38.9922 -81.8008 36° Northeast 457 526 33,000  Level Indianapolis Center
10:54PM 39.0961 -81.7022 36° Northeast 459 528 33,000  Level Indianapolis Center
10:55PM 39.1992 -81.6067 36° Northeast 453 521 33,000  Level Indianapolis Center
10:56PM 39.3008 -81.5094 36° Northeast 454 522 33,000  Level Indianapolis Center
10:58PM 39.4022 -81.4119 37° Northeast 454 522 33,000  Level Indianapolis Center
10:59PM 39.5028 -81.3142 37° Northeast 452 520 33,000  Level Indianapolis Center
11:00PM 39.6022 -81.2197 36° Northeast 446 513 33,000  Level Indianapolis Center
11:01PM 39.7225 -81.1022 37° Northeast 448 516 33,000  Level Indianapolis Center
11:02PM 39.8222 -81.0053 37° Northeast 447 514 33,000  Level Indianapolis Center
11:03PM 39.9225 -80.9086 36° Northeast 449 517 33,000  Level Indianapolis Center
11:03PM 40.0022 -80.8350 35° Northeast 448 516 33,000  Level Cleveland Center
11:04PM 40.0942 -80.7242 43° Northeast 441 507 33,000  Level Cleveland Center
11:05PM 40.1819 -80.6103 45° Northeast 441 507 33,000  Level Cleveland Center
11:06PM 40.2694 -80.4961 45° Northeast 441 507 33,000  Level Cleveland Center
11:07PM 40.3589 -80.3814 44° Northeast 441 507 33,000  Level Cleveland Center
11:08PM 40.4419 -80.2667 46° Northeast 435 501 33,000  Level Cleveland Center
11:09PM 40.5311 -80.1489 45° Northeast 445 512 33,000  Level Cleveland Center
11:10PM 40.6203 -80.0250 47° Northeast 445 512 33,000  Level Cleveland Center
11:11PM 40.7197 -79.8956 45° Northeast 450 518 33,000  Level Cleveland Center
11:12PM 40.8086 -79.7767 45° Northeast 450 518 33,000  Level Cleveland Center
11:13PM 40.8972 -79.6603 45° Northeast 450 518 33,000  Level Cleveland Center
11:14PM 40.9839 -79.5433 46° Northeast 450 518 33,000  Level Cleveland Center
11:15PM 41.0725 -79.4264 45° Northeast 445 512 33,000  Level Cleveland Center
11:16PM 41.1608 -79.3061 46° Northeast 445 512 33,000  Level Cleveland Center
11:17PM 41.2389 -79.2025 45° Northeast 439 505 33,000  Level Cleveland Center
11:18PM 41.3269 -79.0789 46° Northeast 439 505 33,000  Level Cleveland Center
11:19PM 41.4128 -78.9606 46° Northeast 439 505 33,000  Level Cleveland Center
11:20PM 41.5006 -78.8392 46° Northeast 439 505 33,000  Level Cleveland Center
11:21PM 41.5864 -78.7175 47° Northeast 439 505 33,000  Level Cleveland Center
11:22PM 41.6739 -78.5956 46° Northeast 439 505 33,000  Level Cleveland Center
11:23PM 41.7614 -78.4703 47° Northeast 434 499 33,000  Level Cleveland Center
11:24PM 41.8486 -78.3503 46° Northeast 434 499 33,000  Level Cleveland Center
11:25PM 41.9336 -78.2244 48° Northeast 440 506 33,000  Level Cleveland Center
11:26PM 42.0186 -78.1011 47° Northeast 440 506 33,000  Level Cleveland Center
11:27PM 42.1056 -77.9775 47° Northeast 440 506 33,000  Level Cleveland Center
11:28PM 42.1839 -77.8453 51° Northeast 440 506 33,000  Level Cleveland Center
11:29PM 42.2639 -77.7128 51° Northeast 447 514 33,000  Level Cleveland Center
11:30PM 42.3419 -77.5828 51° Northeast 447 514 33,000  Level Cleveland Center
11:32PM 42.4658 -77.3833 50° Northeast 458 527 33,000  Level Boston Center
11:33PM 42.5467 -77.2489 51° Northeast 458 527 33,000  Level Boston Center
11:34PM 42.6253 -77.1139 52° Northeast 458 527 33,000  Level Boston Center
11:35PM 42.7078 -76.9786 50° Northeast 458 527 33,000  Level Boston Center
11:36PM 42.7883 -76.8431 51° Northeast 458 527 33,000  Level Boston Center
11:37PM 42.8664 -76.7069 52° Northeast 458 527 33,000  Level Boston Center
11:38PM 42.9553 -76.5597 50° Northeast 458 527 33,000  Level Boston Center
11:39PM 43.0353 -76.4231 51° Northeast 458 527 33,000  Level Boston Center
11:40PM 43.1150 -76.2861 51° Northeast 458 527 33,000  Level Boston Center
11:41PM 43.1967 -76.1458 51° Northeast 458 527 33,000  Level Boston Center
11:42PM 43.2783 -76.0111 50° Northeast 458 527 33,000  Level Boston Center
11:43PM 43.3575 -75.8728 52° Northeast 458 527 33,000  Level Boston Center
11:44PM 43.4408 -75.7344 50° Northeast 458 527 33,000  Level Boston Center
11:45PM 43.4892 -75.6483 52° Northeast 458 527 33,000  Level Boston Center
11:46PM 43.5983 -75.4678 50° Northeast 463 533 33,000 -180 Level Boston Center
11:47PM 43.6769 -75.3253 53° Northeast 463 533 32,700 -1,680 Descending Boston Center
11:48PM 43.7533 -75.1822 53° Northeast 463 533 29,700 -2,760 Descending Boston Center
11:49PM 43.8339 -75.0392 52° Northeast 463 533 27,200 -2,400 Descending Boston Center
11:50PM 43.9142 -74.8986 52° Northeast 468 539 24,900 -2,040 Descending Boston Center
11:51PM 43.9878 -74.7689 52° Northeast 456 525 23,200 -1,920 Descending Boston Center
11:52PM 44.0589 -74.6472 51° Northeast 429 494 21,100 -2,040 Descending Boston Center
11:53PM 44.1278 -74.5256 52° Northeast 410 472 19,200 -1,620 Descending Boston Center
11:54PM 44.1944 -74.4061 52° Northeast 391 450 17,900 -1,740 Descending Boston Center
11:55PM 44.2403 -74.2772 64° Northeast 377 434 15,800 -2,100 Descending Boston Center
11:56PM 44.2800 -74.1422 68° East 371 427 13,800 -2,100 Descending Boston Center
11:57PM 44.3339 -74.0072 61° Northeast 366 421 11,600 -1,440 Descending Boston Center
11:58PM 44.3833 -73.8894 60° Northeast 354 407 11,000 -600 Descending Boston Center
11:59PM 44.4286 -73.7803 60° Northeast 336 387 10,500 -1,200 Descending Boston Center
12:00AM 44.4692 -73.6764 61° Northeast 318 366 8,600 -1,920 Descending Boston Center
12:01AM 44.5119 -73.5753 59° Northeast 307 353 6,700 -1,980 Descending Boston Center
12:02AM 44.5275 -73.4681 78° East 286 329 4,700 -1,800 Descending Boston Center
12:03AM 44.5389 -73.3719 81° East 270 311 3,100 -1,200 Descending Boston Center
12:04AM 44.5436 -73.3081 84° East 234 269 2,300 -720 Descending Boston Center
12:05AM 44.5231 -73.2378 112° Southeast 199 229 1,700 -600 Descending Boston Center